createdAt,value
2022-11-28T00:02:24.221Z,21.50
2022-11-28T00:04:54.405Z,23.80
2022-11-28T00:07:24.306Z,22.82
2022-11-28T00:09:54.292Z,23.47
2022-11-28T00:12:24.238Z,24.20
2022-11-28T00:14:54.069Z,23.13
2022-11-28T00:17:23.588Z,20.83
2022-11-28T00:19:53.406Z,22.80
2022-11-28T00:22:23.202Z,22.17
2022-11-28T00:24:53.111Z,20.60
2022-11-28T00:27:22.951Z,23.47
2022-11-28T00:29:55.193Z,23.10
2022-11-28T00:32:24.678Z,22.25
2022-11-28T00:34:54.625Z,21.20
2022-11-28T00:37:24.403Z,15.68
2022-11-28T00:39:54.542Z,21.02
2022-11-28T00:42:24.506Z,20.93
2022-11-28T00:44:54.342Z,20.43
2022-11-28T00:47:23.846Z,20.73
2022-11-28T00:49:53.722Z,18.60
2022-11-28T00:52:23.329Z,22.60
2022-11-28T00:54:53.167Z,23.23
2022-11-28T00:57:22.988Z,20.73
2022-11-28T00:59:52.795Z,21.37
2022-11-28T01:02:22.843Z,21.30
2022-11-28T01:04:52.893Z,22.43
2022-11-28T01:07:22.591Z,24.07
2022-11-28T01:09:53.291Z,22.47
2022-11-28T01:12:22.876Z,20.00
2022-11-28T01:14:53.721Z,22.57
2022-11-28T01:17:25.489Z,23.30
2022-11-28T01:19:55.302Z,22.77
2022-11-28T01:22:24.821Z,22.33
2022-11-28T01:24:54.836Z,23.23
2022-11-28T01:27:24.629Z,20.50
2022-11-28T01:29:54.513Z,23.33
2022-11-28T01:32:24.268Z,24.03
2022-11-28T01:34:54.055Z,24.10
2022-11-28T01:37:23.653Z,24.30
2022-11-28T01:39:53.513Z,22.83
2022-11-28T01:42:23.276Z,21.17
2022-11-28T01:45:04.344Z,21.93
2022-11-28T01:47:35.885Z,22.07
2022-11-28T01:50:08.009Z,22.15
2022-11-28T01:52:40.793Z,22.27
2022-11-28T01:55:13.914Z,23.53
2022-11-28T01:57:45.994Z,21.93
2022-11-28T02:00:21.006Z,24.37
2022-11-28T02:03:06.138Z,24.97
2022-11-28T02:05:37.284Z,24.00
2022-11-28T02:08:09.384Z,28.85
2022-11-28T02:10:58.432Z,27.83
2022-11-28T02:13:38.492Z,30.12
2022-11-28T02:16:37.346Z,26.67
2022-11-28T02:19:26.718Z,26.80
2022-11-28T02:21:59.537Z,28.00
2022-11-28T02:24:49.225Z,25.60
2022-11-28T02:27:22.055Z,26.75
2022-11-28T02:30:10.091Z,27.27
2022-11-28T02:33:01.473Z,25.27
2022-11-28T02:35:34.056Z,26.68
2022-11-28T02:38:19.028Z,26.97
2022-11-28T02:40:51.875Z,26.77
2022-11-28T02:43:33.267Z,28.87
2022-11-28T02:46:18.241Z,31.10
2022-11-28T02:49:06.692Z,28.47
2022-11-28T02:51:54.664Z,28.30
2022-11-28T02:54:26.428Z,28.43
2022-11-28T02:56:56.623Z,33.07
2022-11-28T02:59:41.229Z,32.17
2022-11-28T03:02:19.924Z,32.70
2022-11-28T03:05:05.565Z,28.60
2022-11-28T03:07:41.174Z,30.37
2022-11-28T03:10:30.631Z,30.94
2022-11-28T03:13:06.451Z,33.10
2022-11-28T03:15:41.824Z,30.93
2022-11-28T03:18:14.427Z,29.20
2022-11-28T03:20:50.574Z,30.00
2022-11-28T03:23:34.730Z,31.10
2022-11-28T03:26:13.168Z,31.20
2022-11-28T03:28:52.064Z,31.25
2022-11-28T03:31:25.369Z,34.50
2022-11-28T03:33:58.217Z,31.23
2022-11-28T03:36:33.969Z,30.53
2022-11-28T03:39:12.611Z,32.43
2022-11-28T03:41:51.036Z,30.70
2022-11-28T03:44:23.869Z,29.80
2022-11-28T03:46:56.171Z,33.07
2022-11-28T03:49:32.256Z,30.97
2022-11-28T03:52:08.139Z,32.80
2022-11-28T03:54:49.981Z,35.13
2022-11-28T03:57:27.303Z,30.03
2022-11-28T04:00:00.727Z,30.92
2022-11-28T04:02:53.178Z,35.63
2022-11-28T04:05:41.011Z,33.47
2022-11-28T04:08:23.159Z,29.80
2022-11-28T04:11:14.280Z,33.93
2022-11-28T04:13:56.177Z,28.23
2022-11-28T04:16:45.595Z,30.75
2022-11-28T04:19:30.148Z,30.20
2022-11-28T04:22:06.026Z,31.13
2022-11-28T04:24:54.206Z,29.87
2022-11-28T04:27:27.193Z,30.68
2022-11-28T04:30:00.357Z,30.92
2022-11-28T04:32:33.153Z,33.83
2022-11-28T04:35:09.020Z,33.70
2022-11-28T04:37:41.839Z,34.23
2022-11-28T04:40:13.814Z,31.87
2022-11-28T04:42:53.145Z,31.27
2022-11-28T04:45:35.306Z,35.33
2022-11-28T04:48:06.958Z,34.23
2022-11-28T04:50:45.161Z,34.07
2022-11-28T04:53:23.550Z,30.83
2022-11-28T04:55:56.391Z,32.10
2022-11-28T04:58:44.769Z,28.80
2022-11-28T05:01:17.662Z,35.33
2022-11-28T05:03:47.949Z,31.37
2022-11-28T05:06:32.145Z,34.10
2022-11-28T05:09:02.417Z,31.03
2022-11-28T05:11:32.464Z,31.60
2022-11-28T05:14:03.326Z,30.77
2022-11-28T05:16:33.454Z,29.40
2022-11-28T05:19:05.196Z,31.20
2022-11-28T05:21:35.049Z,27.53
2022-11-28T05:24:04.972Z,27.93
2022-11-28T05:26:35.424Z,25.50
2022-11-28T05:29:07.612Z,26.70
2022-11-28T05:31:39.040Z,30.00
2022-11-28T05:34:09.124Z,26.53
2022-11-28T05:36:41.573Z,27.00
2022-11-28T05:39:11.374Z,29.40
2022-11-28T05:41:41.171Z,25.60
2022-11-28T05:44:11.242Z,25.87
2022-11-28T05:46:41.053Z,25.17
2022-11-28T05:49:10.772Z,24.23
2022-11-28T05:51:40.641Z,24.97
2022-11-28T05:54:10.507Z,23.07
2022-11-28T05:56:42.504Z,23.20
2022-11-28T05:59:13.215Z,23.77
2022-11-28T06:04:12.250Z,24.67
2022-11-28T06:06:42.502Z,23.80
2022-11-28T06:09:12.319Z,27.37
2022-11-28T06:11:42.134Z,23.27
2022-11-28T06:14:12.451Z,23.23
2022-11-28T06:16:43.775Z,21.95
2022-11-28T06:19:14.419Z,23.98
2022-11-28T06:21:44.507Z,23.60
2022-11-28T06:24:14.293Z,20.27
2022-11-28T06:26:44.485Z,18.87
2022-11-28T06:29:14.385Z,19.75
2022-11-28T06:31:44.301Z,22.30
2022-11-28T06:34:14.490Z,21.50
2022-11-28T06:36:45.336Z,20.53
2022-11-28T06:39:16.566Z,20.82
2022-11-28T06:41:46.456Z,20.93
2022-11-28T06:44:17.961Z,21.97
2022-11-28T06:46:47.626Z,19.25
2022-11-28T06:49:17.432Z,20.30
2022-11-28T06:51:47.374Z,20.60
2022-11-28T06:54:17.295Z,20.50
2022-11-28T06:56:47.289Z,20.43
2022-11-28T06:59:17.036Z,22.33
2022-11-28T07:01:47.121Z,22.57
2022-11-28T07:04:16.728Z,22.70
2022-11-28T07:06:46.606Z,22.43
2022-11-28T07:09:16.228Z,22.90
2022-11-28T07:11:46.298Z,21.90
2022-11-28T07:14:15.803Z,21.77
2022-11-28T07:16:45.723Z,21.27
2022-11-28T07:19:15.343Z,22.47
2022-11-28T07:21:45.159Z,21.90
2022-11-28T07:24:14.831Z,25.57
2022-11-28T07:26:44.816Z,21.40
2022-11-28T07:29:19.112Z,22.80
2022-11-28T07:31:48.990Z,22.87
2022-11-28T07:34:18.545Z,22.60
2022-11-28T07:36:48.350Z,22.33
2022-11-28T07:39:18.159Z,22.30
2022-11-28T07:41:47.947Z,24.67
2022-11-28T07:44:20.448Z,26.10
2022-11-28T07:46:50.468Z,24.87
2022-11-28T07:49:20.111Z,24.70
2022-11-28T07:51:49.892Z,27.07
2022-11-28T07:54:19.518Z,26.37
2022-11-28T07:57:11.805Z,29.43
2022-11-28T07:59:20.895Z,27.70
2022-11-28T08:01:50.798Z,27.17
2022-11-28T08:04:20.705Z,30.83
2022-11-28T08:06:50.556Z,26.57
2022-11-28T08:09:20.194Z,28.93
2022-11-28T08:11:51.641Z,26.97
2022-11-28T08:14:24.682Z,27.60
2022-11-28T08:16:54.692Z,30.80
2022-11-28T08:19:29.372Z,26.97
2022-11-28T08:21:57.874Z,24.98
2022-11-28T08:24:27.680Z,25.33
2022-11-28T08:26:57.558Z,29.60
2022-11-28T08:29:27.400Z,30.67
2022-11-28T08:31:57.495Z,27.77
2022-11-28T08:34:27.623Z,26.62
2022-11-28T08:36:57.484Z,26.17
2022-11-28T08:39:27.358Z,29.77
2022-11-28T08:42:00.388Z,29.03
2022-11-28T08:44:30.811Z,30.30
2022-11-28T08:47:01.581Z,26.87
2022-11-28T08:49:31.391Z,25.68
2022-11-28T08:52:01.660Z,25.43
2022-11-28T08:54:31.559Z,27.53
2022-11-28T08:57:02.101Z,25.47
2022-11-28T08:59:33.632Z,25.77
2022-11-28T09:02:03.417Z,30.33
2022-11-28T09:04:33.551Z,27.22
2022-11-28T09:07:03.326Z,26.47
2022-11-28T09:09:33.226Z,26.70
2022-11-28T09:12:03.011Z,24.97
2022-11-28T09:14:33.043Z,25.27
2022-11-28T09:17:02.961Z,22.57
2022-11-28T09:19:32.946Z,20.93
2022-11-28T09:22:02.886Z,21.10
2022-11-28T09:24:33.016Z,20.12
2022-11-28T09:27:04.071Z,21.93
2022-11-28T09:29:33.857Z,19.02
2022-11-28T09:32:03.666Z,19.73
2022-11-28T09:34:33.654Z,18.53
2022-11-28T09:37:05.634Z,19.67
2022-11-28T09:39:50.289Z,19.12
2022-11-28T09:42:10.350Z,20.97
2022-11-28T09:45:08.645Z,16.50
2022-11-28T09:47:40.796Z,19.03
2022-11-28T09:50:26.206Z,16.63
2022-11-28T09:53:11.167Z,17.87
2022-11-28T09:55:53.069Z,16.90
2022-11-28T09:58:45.733Z,16.55
2022-11-28T10:01:18.256Z,16.43
2022-11-28T10:03:56.946Z,15.60
2022-11-28T10:06:32.904Z,17.17
2022-11-28T10:09:11.001Z,16.47
2022-11-28T10:11:50.249Z,17.13
2022-11-28T10:14:56.606Z,16.12
2022-11-28T10:17:35.158Z,14.23
2022-11-28T10:20:13.605Z,14.68
2022-11-28T10:23:03.336Z,14.83
2022-11-28T10:25:44.708Z,13.87
2022-11-28T10:31:02.075Z,14.10
2022-11-28T10:33:35.009Z,14.47
2022-11-28T10:36:07.013Z,13.60
2022-11-28T10:38:38.184Z,14.20
2022-11-28T10:41:19.987Z,15.30
2022-11-28T10:43:59.489Z,14.53
2022-11-28T10:46:38.265Z,15.40
2022-11-28T10:49:29.006Z,14.97
2022-11-28T10:52:19.321Z,14.17
2022-11-28T10:55:04.074Z,15.30
2022-11-28T10:57:42.956Z,13.40
2022-11-28T11:00:17.703Z,13.50
2022-11-28T11:03:02.327Z,13.00
2022-11-28T11:05:34.975Z,11.43
2022-11-28T11:08:14.687Z,12.23
2022-11-28T11:10:57.032Z,11.73
2022-11-28T11:13:28.169Z,12.10
2022-11-28T11:16:03.418Z,12.67
2022-11-28T11:18:38.462Z,12.18
2022-11-28T11:21:25.979Z,11.50
2022-11-28T11:24:18.316Z,10.77
2022-11-28T11:26:50.113Z,12.67
2022-11-28T11:29:31.548Z,10.60
2022-11-28T11:32:03.180Z,11.00
2022-11-28T11:34:41.868Z,9.53
2022-11-28T11:37:36.551Z,11.17
2022-11-28T11:40:25.456Z,9.13
2022-11-28T11:42:58.099Z,10.53
2022-11-28T11:45:35.953Z,9.73
2022-11-28T11:48:06.781Z,9.53
2022-11-28T11:50:38.251Z,10.57
2022-11-28T11:55:50.102Z,10.82
2022-11-28T11:58:28.683Z,10.18
2022-11-28T12:01:00.806Z,9.25
2022-11-28T12:03:33.780Z,9.57
2022-11-28T12:06:14.673Z,9.97
2022-11-28T12:08:44.199Z,9.57
2022-11-28T12:11:25.546Z,10.07
2022-11-28T12:13:57.921Z,7.47
2022-11-28T12:16:48.243Z,8.20
2022-11-28T12:19:36.257Z,9.05
2022-11-28T12:22:09.411Z,7.13
2022-11-28T12:25:06.221Z,9.83
2022-11-28T12:27:55.829Z,10.00
2022-11-28T12:30:34.233Z,8.43
2022-11-28T12:33:32.789Z,7.93
2022-11-28T12:36:11.986Z,7.65
2022-11-28T12:38:50.630Z,7.77
2022-11-28T12:41:32.239Z,7.28
2022-11-28T12:44:27.953Z,7.85
2022-11-28T12:47:18.945Z,9.15
2022-11-28T12:49:54.480Z,7.70
2022-11-28T12:52:40.581Z,6.95
2022-11-28T12:55:16.171Z,8.60
2022-11-28T12:58:10.144Z,10.05
2022-11-28T13:01:01.091Z,8.57
2022-11-28T13:03:57.960Z,8.13
2022-11-28T13:06:45.360Z,8.93
2022-11-28T13:09:32.551Z,8.03
2022-11-28T13:12:32.897Z,8.80
2022-11-28T13:15:05.824Z,9.10
2022-11-28T13:17:41.771Z,8.43
2022-11-28T13:20:26.113Z,8.87
2022-11-28T13:23:05.939Z,8.20
2022-11-28T13:25:50.874Z,8.33
2022-11-28T13:28:32.276Z,7.77
2022-11-28T13:31:20.022Z,7.37
2022-11-28T13:33:57.574Z,8.87
2022-11-28T13:39:13.401Z,7.80
2022-11-28T13:44:23.925Z,8.95
2022-11-28T13:46:53.889Z,9.50
2022-11-28T13:49:26.412Z,8.63
2022-11-28T13:52:22.872Z,11.73
2022-11-28T13:54:55.294Z,10.10
2022-11-28T13:57:28.272Z,8.67
2022-11-28T14:00:22.785Z,9.33
2022-11-28T14:03:00.200Z,9.77
2022-11-28T14:05:36.171Z,8.27
2022-11-28T14:08:08.486Z,10.18
2022-11-28T14:10:58.685Z,9.35
2022-11-28T14:13:41.563Z,9.67
2022-11-28T14:16:33.975Z,8.83
2022-11-28T14:19:06.903Z,7.27
2022-11-28T14:21:54.493Z,8.00
2022-11-28T14:24:47.133Z,7.92
2022-11-28T14:27:23.669Z,7.90
2022-11-28T14:29:56.985Z,6.20
2022-11-28T14:32:35.758Z,7.73
2022-11-28T14:35:09.632Z,7.47
2022-11-28T14:37:55.403Z,6.33
2022-11-28T14:40:51.101Z,7.17
2022-11-28T14:43:29.885Z,8.05
2022-11-28T14:46:26.667Z,7.97
2022-11-28T14:49:02.816Z,7.53
2022-11-28T14:52:09.811Z,8.47
2022-11-28T14:54:39.187Z,6.93
2022-11-28T14:57:14.908Z,8.20
2022-11-28T14:59:45.648Z,7.73
2022-11-28T15:02:33.926Z,8.00
2022-11-28T15:05:09.425Z,7.83
2022-11-28T15:08:13.231Z,8.97
2022-11-28T15:11:00.807Z,7.47
2022-11-28T15:13:59.245Z,9.33
2022-11-28T15:16:31.657Z,9.73
2022-11-28T15:19:07.298Z,9.77
2022-11-28T15:21:45.543Z,9.73
2022-11-28T15:24:24.992Z,9.03
2022-11-28T15:27:14.829Z,9.93
2022-11-28T15:29:47.955Z,9.40
2022-11-28T15:32:17.525Z,10.07
2022-11-28T15:34:50.371Z,9.57
2022-11-28T15:37:20.738Z,10.87
2022-11-28T15:39:51.235Z,8.60
2022-11-28T15:42:33.785Z,9.50
2022-11-28T15:45:10.531Z,10.07
2022-11-28T15:47:42.857Z,10.20
2022-11-28T15:50:25.660Z,11.53
2022-11-28T15:52:59.942Z,11.73
2022-11-28T15:55:34.690Z,9.40
2022-11-28T15:58:15.348Z,10.30
2022-11-28T16:00:51.986Z,10.03
2022-11-28T16:03:24.790Z,9.50
2022-11-28T16:05:57.072Z,10.27
2022-11-28T16:08:30.478Z,10.53
2022-11-28T16:11:02.666Z,10.17
2022-11-28T16:13:34.426Z,9.13
2022-11-28T16:18:34.250Z,9.40
2022-11-28T16:21:04.662Z,9.40
2022-11-28T16:23:37.978Z,8.93
2022-11-28T16:26:10.889Z,10.00
2022-11-28T16:28:41.357Z,9.87
2022-11-28T16:31:16.093Z,9.83
2022-11-28T16:33:50.374Z,9.40
2022-11-28T16:36:29.339Z,10.03
2022-11-28T16:39:14.386Z,10.77
2022-11-28T16:41:56.782Z,9.50
2022-11-28T16:44:28.204Z,11.15
2022-11-28T16:47:00.029Z,9.70
2022-11-28T16:49:42.892Z,8.90
2022-11-28T16:52:27.983Z,12.03
2022-11-28T16:54:59.216Z,10.10
2022-11-28T16:57:40.956Z,9.23
2022-11-28T17:00:11.312Z,9.68
2022-11-28T17:02:41.148Z,11.87
2022-11-28T17:05:11.013Z,10.43
2022-11-28T17:07:40.875Z,9.97
2022-11-28T17:10:15.256Z,10.10
2022-11-28T17:12:45.165Z,9.10
2022-11-28T17:15:20.682Z,10.40
2022-11-28T17:17:50.764Z,10.17
2022-11-28T17:20:20.306Z,9.80
2022-11-28T17:22:51.379Z,10.27
2022-11-28T17:25:23.034Z,9.65
2022-11-28T17:27:53.051Z,9.67
2022-11-28T17:30:23.855Z,12.45
2022-11-28T17:32:53.998Z,9.35
2022-11-28T17:35:26.245Z,8.93
2022-11-28T17:37:56.345Z,10.67
2022-11-28T17:40:36.401Z,10.60
2022-11-28T17:43:07.853Z,10.82
2022-11-28T17:45:38.673Z,9.77
2022-11-28T17:48:11.431Z,11.40
2022-11-28T17:50:43.712Z,11.30
2022-11-28T17:53:16.963Z,9.03
2022-11-28T17:55:53.753Z,9.50
2022-11-28T17:58:26.457Z,10.18
2022-11-28T18:01:00.436Z,9.53
2022-11-28T18:03:30.179Z,11.00
2022-11-28T18:06:00.069Z,10.15
2022-11-28T18:08:30.359Z,11.03
2022-11-28T18:11:06.333Z,9.83
2022-11-28T18:13:36.210Z,10.50
2022-11-28T18:16:06.954Z,10.70
2022-11-28T18:18:36.993Z,10.87
2022-11-28T18:21:11.317Z,10.43
2022-11-28T18:23:44.194Z,10.43
2022-11-28T18:26:17.796Z,10.25
2022-11-28T18:28:48.478Z,10.57
2022-11-28T18:31:26.773Z,10.10
2022-11-28T18:34:01.597Z,10.27
2022-11-28T18:36:29.782Z,9.90
2022-11-28T18:41:32.672Z,9.40
2022-11-28T18:44:04.908Z,11.40
2022-11-28T18:46:35.483Z,11.83
2022-11-28T18:49:07.976Z,10.40
2022-11-28T18:51:37.842Z,10.35
2022-11-28T18:54:08.253Z,10.23
2022-11-28T18:56:40.112Z,9.93
2022-11-28T18:59:11.856Z,11.40
2022-11-28T19:01:42.553Z,10.07
2022-11-28T19:04:15.448Z,9.60
2022-11-28T19:06:48.304Z,10.47
2022-11-28T19:09:18.822Z,10.67
2022-11-28T19:11:48.696Z,10.53
2022-11-28T19:14:23.502Z,10.78
2022-11-28T19:16:54.157Z,10.47
2022-11-28T19:19:24.090Z,12.73
2022-11-28T19:21:54.201Z,10.75
2022-11-28T19:24:25.700Z,12.35
2022-11-28T19:26:55.675Z,10.97
2022-11-28T19:29:25.559Z,9.87
2022-11-28T19:31:55.910Z,11.33
2022-11-28T19:34:25.862Z,10.47
2022-11-28T19:36:56.080Z,10.90
2022-11-28T19:39:32.313Z,8.70
2022-11-28T19:42:02.646Z,10.20
2022-11-28T19:44:32.541Z,10.30
2022-11-28T19:47:02.691Z,11.33
2022-11-28T19:49:32.521Z,10.90
2022-11-28T19:52:04.057Z,10.43
2022-11-28T19:57:07.653Z,9.23
2022-11-28T19:59:37.616Z,9.90
2022-11-28T20:02:08.593Z,10.35
2022-11-28T20:04:42.656Z,10.60
2022-11-28T20:07:12.495Z,10.73
2022-11-28T20:09:43.673Z,8.73
2022-11-28T20:12:13.611Z,9.40
2022-11-28T20:14:43.564Z,8.63
2022-11-28T20:17:13.211Z,10.23
2022-11-28T20:19:45.144Z,9.63
2022-11-28T20:22:17.091Z,9.80
2022-11-28T20:24:48.473Z,10.73
2022-11-28T20:27:18.134Z,7.33
2022-11-28T20:29:51.198Z,9.93
2022-11-28T20:32:20.959Z,8.70
2022-11-28T20:34:52.506Z,8.88
2022-11-28T20:37:24.362Z,9.50
2022-11-28T20:39:54.613Z,11.10
2022-11-28T20:42:24.670Z,11.68
2022-11-28T20:44:54.475Z,10.07
2022-11-28T20:47:24.485Z,11.33
2022-11-28T20:49:54.310Z,11.20
2022-11-28T20:52:23.830Z,10.83
2022-11-28T20:54:55.680Z,9.83
2022-11-28T20:57:29.767Z,9.83
2022-11-28T20:59:59.567Z,8.40
2022-11-28T21:02:29.407Z,9.67
2022-11-28T21:04:59.388Z,10.03
2022-11-28T21:07:31.080Z,10.43
2022-11-28T21:12:29.504Z,9.60
2022-11-28T21:14:59.335Z,11.90
2022-11-28T21:17:37.849Z,10.90
2022-11-28T21:20:09.526Z,11.03
2022-11-28T21:22:39.379Z,9.70
2022-11-28T21:25:09.090Z,10.63
2022-11-28T21:27:39.766Z,11.83
2022-11-28T21:30:10.209Z,12.00
2022-11-28T21:32:40.310Z,11.70
2022-11-28T21:35:10.345Z,9.93
2022-11-28T21:37:40.247Z,10.50
2022-11-28T21:40:10.545Z,11.10
2022-11-28T21:42:40.041Z,9.73
2022-11-28T21:45:10.400Z,11.97
2022-11-28T21:47:42.483Z,10.10
2022-11-28T21:50:14.778Z,9.80
2022-11-28T21:52:46.621Z,9.60
2022-11-28T21:55:18.674Z,10.80
2022-11-28T21:57:50.267Z,10.32
2022-11-28T22:00:45.562Z,11.70
2022-11-28T22:02:52.088Z,10.77
2022-11-28T22:05:23.748Z,11.77
2022-11-28T22:07:53.669Z,10.03
2022-11-28T22:10:24.466Z,11.00
2022-11-28T22:12:54.318Z,8.05
2022-11-28T22:15:24.491Z,11.20
2022-11-28T22:17:54.785Z,10.93
2022-11-28T22:20:24.979Z,10.98
2022-11-28T22:22:54.791Z,11.33
2022-11-28T22:25:24.631Z,11.78
2022-11-28T22:27:54.608Z,11.23
2022-11-28T22:30:26.166Z,12.43
2022-11-28T22:32:56.032Z,10.48
2022-11-28T22:35:26.022Z,12.60
2022-11-28T22:37:55.807Z,12.37
2022-11-28T22:40:26.587Z,11.37
2022-11-28T22:42:57.394Z,11.33
2022-11-28T22:45:26.947Z,11.17
2022-11-28T22:47:57.254Z,10.87
2022-11-28T22:50:27.603Z,12.00
2022-11-28T22:52:57.500Z,11.33
2022-11-28T22:55:27.389Z,13.63
2022-11-28T22:57:57.646Z,12.93
2022-11-28T23:00:27.493Z,13.37
2022-11-28T23:02:57.620Z,10.73
2022-11-28T23:05:27.500Z,11.00
2022-11-28T23:07:57.586Z,13.10
2022-11-28T23:10:27.429Z,10.97
2022-11-28T23:12:58.684Z,10.75
2022-11-28T23:15:28.575Z,12.10
2022-11-28T23:17:59.029Z,12.28
2022-11-28T23:20:28.890Z,13.40
2022-11-28T23:22:59.699Z,12.40
2022-11-28T23:25:29.803Z,13.37
2022-11-28T23:27:59.631Z,13.90
2022-11-28T23:30:29.506Z,13.70
2022-11-28T23:32:59.402Z,13.03
2022-11-28T23:35:29.955Z,13.47
2022-11-28T23:37:59.542Z,14.57
2022-11-28T23:40:29.480Z,14.07
2022-11-28T23:42:59.307Z,13.60
2022-11-28T23:45:29.147Z,12.73
2022-11-28T23:47:58.957Z,14.03
2022-11-28T23:50:28.919Z,13.97
2022-11-28T23:52:58.716Z,13.27
2022-11-28T23:55:28.506Z,14.33
2022-11-28T23:57:59.620Z,13.50
